Gilze en Rijen, Nederland

1:33 AM CEST op 19 april 2015 (GMT +0200)
Gilze-Rijen Air Base | | Change Station
CLOSE
Current Station
Luchthaven
Location: Gilze-Rijen,
Geometrische hoogte: 43 ft
Nabije weerstations

Hoogte 43 ft 51.56 °N, 4.94 °E | Updated 8 minutes ago

Mostly Cloudy
Merendeels bewolkt
41 °F
Voelt als 36 °F
N
8
Wind Variabel Wind van NNO

Vandaag
Hoog -- | Laag -- °F
--% Kans op neerslag
Gisteren
Hoog -- | Laag -- °F
Precip. -- inches
6:36 AM 8:43 PM
Nieuwe maan, 0% visible
Druk 30.30 inches
Zicht 6.2 mijlen
Wolken Gering 11000 ft
Licht bewolkt 16000 ft
Merendeels bewolkt 37000 ft
Gevoelstemperatuur 36 °F
Dauwpunt 37 °F
Vochtigheid 87%
Neerslag 0.00 inches
Dikte sneeuw Niet beschikbaar.
UV 0 van de 12
Pollen Niet beschikbaar.
Luchtkwaliteit Niet beschikbaar.
Flu Activity Niet beschikbaar.
METAR EHGR 182325Z AUTO 02007KT 9999 FEW110 SCT160 BKN370 05/03 Q1026 BLU

More Conditions Fewer Conditions

Druk 30.30 inches
Zicht 6.2 mijlen
Wolken Gering 11000 ft
Licht bewolkt 16000 ft
Merendeels bewolkt 37000 ft
Gevoelstemperatuur 36 °F
Dauwpunt 37 °F
Vochtigheid 87%
Neerslag 0.00 inches
Dikte sneeuw Niet beschikbaar.
UV 0 van de 12
Pollen Niet beschikbaar.
Luchtkwaliteit Niet beschikbaar.
Flu Activity Niet beschikbaar.
METAR EHGR 182325Z AUTO 02007KT 9999 FEW110 SCT160 BKN370 05/03 Q1026 BLU

More Conditions Fewer Conditions

10-Day Weather Forecast

Almanac

Astronomie

Apr. 19, 2015 Opkomst Ondergang
Werkelijke tijd
Burgerlijke schemering
Nautische schemering
Astronomische schemering
Maan
Golflengte van het zichtbare licht
Daglengte
Tomorrow will be .
, % of the Moon is Illuminated

Extremen vandaag

Country Highs Country Lows

Community

WunderPhotos

Upload Photos

1,814,576 foto’s ge-upload!

WunderBlogs® & News

Nearby

Luchtkwaliteit

  Luchtkwaliteit LK-index Verontreinigende stof
Not available.

Dikte sneeuw

Station Depth Geometrische hoogte

Aardbevingen

Stad Distance Mag. Time & Date
Minimum magnitude displayed is 2.5.

Watertemperatuur langs de kust

Plaats Temperatuur

Stations

Nabije weerstations

Locatie station Temp. Gevoelstemperatuur Dauwpunt Vochtigheid Wind Precip. Hoogte Geactualiseerd Type